Weather


ICAO METAR
KAPA KAPA 121153Z 12006KT 10SM CLR M07/M11 A3024 RMK AO2 SLP292 70001 T10671106 11039 21072 58023
KASE KASE 121153Z AUTO 21004KT 10SM CLR M09/M15 A3037 RMK AO2 SLP280 T10941150 11033 21094 58007
KBJC KBJC 121247Z 21004KT 10SM SKC M04/M11 A3022
KBKF KBKF 121158Z 19011KT 10SM FEW220 M05/M09 A3024 RMK AO2A SLP279 T10481093 11045 21068 57024
KCOS KCOS 121154Z 03007KT 10SM CLR M10/M13 A3030 RMK AO2 SLP335 T11001133 11083 21111 58023
KCPR KCPR 121153Z 21024G30KT 10SM CLR M02/M09 A3016 RMK AO2 PK WND 22030/1102 SNB1059E09 SLP251 P0000 60000 T10221094 11017 21050 56021
KCYS KCYS 121153Z AUTO 22010KT 10SM CLR M07/M14 A3019 RMK AO2 SLP288 I6000 T10671139 11044 21133 58024 $
KDEN KDEN 121153Z 21011KT 10SM CLR M03/M08 A3023 RMK AO2 SLP270 70001 T10331083 11033 21089 58028 $
KEGE KEGE 121156Z AUTO 10004KT 10SM CLR M10/M13 A3046 RMK AO2 SLP365 T11001128 11056 21100 56003 FZRANO
KFCS KFCS 121158Z AUTO 34007KT 10SM CLR M10/M13 A3030 RMK AO2 SLP354 T11051127 11081 21113 57025 $
KFMN KFMN 121153Z AUTO 10008KT 10SM CLR M02/M10 A3039 RMK AO2 SLP286 T10221100 10039 21022 51006
KFTG KFTG 121230Z AUTO 20010KT 10SM CLR M05/M08 A3023 RMK AO2 T10481084
KGCC KGCC 121153Z AUTO 22019KT 10SM CLR M01/M10 A3001 RMK AO2 PK WND 22032/1059 SLP211 T10111100 11011 21089 56032 $
KGJT KGJT 121153Z AUTO 14010KT 10SM CLR M03/M13 A3038 RMK AO2 SLP287 T10331128 10017 21072 58001
KPUB KPUB 121153Z AUTO 30003KT 10SM CLR M10/M12 A3037 RMK AO2 SLP331 I6000 T11001122 11072 21100 56025
KRAP KRAP 121252Z 09003KT 10SM CLR M16/M18 A3000 RMK AO2 SLP235 T11611183 $
KRCA KRCA 121156Z AUTO 31003KT 10SM CLR M15/M16 A3001 RMK AO2 SLP237 T11511163 11136 21172 57050 FZRANO $

Surface Data
Click here.

This is a composite map contain the following analyses: radar summary (color filled areas), surface data plot (composite station model), frontal locations (in various bold lines) and pressure contours (in thin blue lines).